Laporte, CO

9:41 PM MDT on May 06, 2015 (GMT -0600)
KBB Honey Farm | | Change Station
CLOSE
Current Station
Personal Weather Station
Location: Laporte, CO
Elevation: 5130 ft
Nearby Weather Stations

Elev 5130 ft 40.64 °N, 105.14 °W | Updated 1 minute ago

Overcast
Overcast
49.1 °F
Feels Like 49 °F
N
0.0
Wind Variable Wind from North
Gusts 1.6 mph

Today
High -- | Low -- °F
--% Chance of Precip.
Yesterday
High -- | Low -- °F
Precip. -- in
5:53 AM 8:01 PM
Waning Gibbous, 91% visible
Pressure 29.82 in
Visibility 10.0 miles
Clouds Few 6000 ft
Windchill 49 °F
Dew Point 49 °F
Humidity 99%
Rainfall 0.26 in
Snow Depth Not available.
UV 0 out of 12
Pollen 3.10 out of 12
Air Quality Not available.
Flu Activity Sporadic
METAR KFNL 070335Z AUTO 35003KT 10SM FEW060 11/09 A2982 RMK AO1

More Conditions Fewer Conditions

Pressure 29.82 in
Visibility 10.0 miles
Clouds Few 6000 ft
Windchill 49 °F
Dew Point 49 °F
Humidity 99%
Rainfall 0.26 in
Snow Depth Not available.
UV 0 out of 12
Pollen 3.10 out of 12
Air Quality Not available.
Flu Activity Sporadic
METAR KFNL 070335Z AUTO 35003KT 10SM FEW060 11/09 A2982 RMK AO1

More Conditions Fewer Conditions

Nowcast | as of 7:17 PM MDT on May 6, 2015

Numerous showers and scattered thunderstorms will continue over the foothills and the urban corridor through the evening hours. Some of the showers will produce heavy rain and wind gusts to 35 mph. Rainfall rates will be up to a half inch in less than an hour with the heavier showers. The strongest storms will be across central Weld County and also over western portions of the Denver area.

×

10-Day Weather Forecast

Almanac

Astronomy

May. 06, 2015 Rise Set
Actual Time
Civil Twilight
Nautical Twilight
Astronomical Twilight
Moon
Length of Visible Light
Length of Day
Tomorrow will be .
, % of the Moon is Illuminated

Today's Extremes

State Highs State Lows

Community

WunderPhotos

Upload Photos

1,819,106 photos uploaded!

WunderBlogs® & News

Nearby

Air Quality

  Air Quality AQ Index Pollutant
Not available.

Snow Depth

Station Depth Elevation

Earthquake Activity

City Distance Mag. Time & Date
Minimum magnitude displayed is 2.5.

Coastal Water Temperatures

Place Temperature

Stations

Nearby Weather Stations

Station Location Temp. Windchill Dew Point Humidity Wind Precip. Elev Updated Type